Flight Track Log - Related Links

Times and Time Zones

All times are in EDT time to prevent confusion due to time zone crossing. See the AAL832 flight status page for this flight to view local times or setup timezone preferences in your user account.

Time Position Orientation Groundspeed Altitude Reporting Facility
EDT Latitude Longitude Course Direction KTS MPH feet Rate Location/Type
Thu 12:16:21 PM 33.9167 -118.5000 103° East 247 284 3,200  Level Southern California TRACON
Thu 12:17:00 PM 33.7667 -118.0083 90° East  Level FlightAware Approximate
Thu 12:17:21 PM 33.8667 -118.5667 228° Southwest 282 325 6,200  Level Southern California TRACON
Thu 12:18:00 PM 33.7667 -117.8560 90° East  Level FlightAware Approximate
Thu 12:18:26 PM 33.7836 -118.5414 166° South 277 319 9,300  Level Los Angeles Center
Thu 12:19:00 PM 33.7441 -117.7072 97° East  Level FlightAware Approximate
Thu 12:19:28 PM 33.7011 -118.5078 161° South 325 374 11,100  Level Los Angeles Center
Thu 12:20:00 PM 33.7333 -117.5557 90° East  Level FlightAware Approximate
Thu 12:20:30 PM 33.6681 -118.3906 109° East 329 379 14,300  Level Los Angeles Center
Thu 12:21:00 PM 33.7181 -117.4071 103° East  Level FlightAware Approximate
Thu 12:21:32 PM 33.6667 -118.2700 91° East 369 425 15,500  Level Los Angeles Center
Thu 12:22:34 PM 33.6647 -118.1364 91° East 404 465 17,500 2,081 Climbing Los Angeles Center
Thu 12:23:36 PM 33.6631 -117.9683 91° East 422 486 19,800 2,016 Climbing Los Angeles Center
Thu 12:24:39 PM 33.6608 -117.8200 91° East 443 510 21,700 1,548 Climbing Los Angeles Center
Thu 12:25:40 PM 33.6594 -117.6983 91° East 455 524 23,000 1,597 Climbing Los Angeles Center
Thu 12:26:43 PM 33.6567 -117.5100 91° East 472 543 25,000 1,680 Climbing Los Angeles Center
Thu 12:27:45 PM 33.6553 -117.3478 91° East 484 557 26,500 1,597 Climbing Los Angeles Center
Thu 12:28:47 PM 33.6519 -117.1844 91° East 490 564 28,300 2,032 Climbing Los Angeles Center
Thu 12:29:49 PM 33.6492 -116.9886 91° East 491 565 30,700 2,032 Climbing Los Angeles Center
Thu 12:30:51 PM 33.6475 -116.8283 91° East 484 557 32,500 1,597 Climbing Los Angeles Center
Thu 12:31:53 PM 33.6814 -116.6625 76° East 476 548 34,000 1,500 Climbing Los Angeles Center
Thu 12:32:55 PM 33.7142 -116.5083 76° East 473 544 35,600 1,306 Climbing Los Angeles Center
Thu 12:33:57 PM 33.7461 -116.3547 76° East 474 545 36,700 1,008 Climbing Los Angeles Center
Thu 12:35:00 PM 33.7775 -116.2008 76° East 473 544 37,700 864 Climbing Los Angeles Center
Thu 12:36:02 PM 33.8106 -116.0478 75° East 472 543 38,500 634 Climbing Los Angeles Center
Thu 12:37:03 PM 33.8372 -115.9261 75° East 471 542 39,000 242 Climbing Los Angeles Center
Thu 12:38:06 PM 33.8825 -115.7131 76° East 471 542 39,000  Level Los Angeles Center
Thu 12:39:08 PM 33.9147 -115.5586 76° East 476 548 39,000  Level Los Angeles Center
Thu 12:40:10 PM 33.9483 -115.4039 75° East 477 549 39,000  Level Los Angeles Center
Thu 12:41:12 PM 33.9811 -115.2492 76° East 477 549 39,000  Level Los Angeles Center
Thu 12:42:14 PM 34.0136 -115.0928 76° East 480 552 39,000  Level Los Angeles Center
Thu 12:43:16 PM 34.0467 -114.9364 76° East 481 554 39,000  Level Los Angeles Center
Thu 12:44:18 PM 34.0864 -114.7483 76° East 482 555 39,000  Level Los Angeles Center
Thu 12:45:21 PM 34.1250 -114.5956 73° East 477 549 39,000  Level Los Angeles Center
Thu 12:46:23 PM 34.1700 -114.4436 70° East 479 551 39,000 54 Level Los Angeles Center
Thu 12:47:13 PM 34.2014 -114.3314 71° East 480 552 39,100 54 Climbing Albuquerque Center
Thu 12:48:15 PM 34.2531 -114.1494 71° East 480 552 39,100  Level Albuquerque Center
Thu 12:49:17 PM 34.2961 -113.9983 71° East 478 550 39,100  Level Albuquerque Center
Thu 12:50:19 PM 34.3369 -113.8469 72° East 476 548 39,100  Level Albuquerque Center
Thu 12:51:21 PM 34.3794 -113.6928 71° East 480 552 39,100 -48 Level Albuquerque Center
Thu 12:52:23 PM 34.4261 -113.5236 71° East 480 552 39,000 -48 Descending Albuquerque Center
Thu 12:53:25 PM 34.4678 -113.3714 72° East 479 551 39,000 48 Level Albuquerque Center
Thu 12:54:27 PM 34.5081 -113.2194 72° East 478 550 39,100 48 Climbing Albuquerque Center
Thu 12:55:29 PM 34.5483 -113.0667 72° East 479 551 39,100 -32 Level Albuquerque Center
Thu 12:57:33 PM 34.6364 -112.7297 72° East 480 552 39,000 -32 Descending Albuquerque Center
Thu 12:58:35 PM 34.6767 -112.5747 72° East 483 556 39,000  Level Albuquerque Center
Thu 12:59:39 PM 34.7164 -112.4189 73° East 485 558 39,000  Level Albuquerque Center
Thu 01:00:41 PM 34.7519 -112.2628 74° East 486 559 39,000  Level Albuquerque Center
Thu 01:01:43 PM 34.7947 -112.0736 75° East 487 560 39,000  Level Albuquerque Center
Thu 01:02:45 PM 34.8314 -111.9136 74° East 491 565 39,000  Level Albuquerque Center
Thu 01:03:47 PM 34.8664 -111.7556 75° East 490 564 39,000  Level Albuquerque Center
Thu 01:04:49 PM 34.9028 -111.5961 74° East 491 565 39,000  Level Albuquerque Center
Thu 01:05:51 PM 34.9381 -111.4372 75° East 489 563 39,000  Level Albuquerque Center
Thu 01:06:53 PM 34.9731 -111.2769 75° East 491 565 39,000 48 Level Albuquerque Center
Thu 01:07:55 PM 35.0167 -111.0753 75° East 490 564 39,100 48 Climbing Albuquerque Center
Thu 01:08:57 PM 35.0517 -110.9200 75° East 494 568 39,100  Level Albuquerque Center
Thu 01:09:59 PM 35.0914 -110.7375 75° East 498 573 39,100  Level Albuquerque Center
Thu 01:11:01 PM 35.1253 -110.5811 75° East 498 573 39,100  Level Albuquerque Center
Thu 01:12:03 PM 35.1594 -110.4231 75° East 502 578 39,100  Level Albuquerque Center
Thu 01:13:05 PM 35.1992 -110.2394 75° East 502 578 39,100  Level Albuquerque Center
Thu 01:14:07 PM 35.2322 -110.0819 76° East 501 577 39,100  Level Albuquerque Center
Thu 01:15:09 PM 35.2725 -109.8969 75° East 504 580 39,100  Level Albuquerque Center
Thu 01:16:12 PM 35.3058 -109.7381 76° East 505 581 39,100  Level Albuquerque Center
Thu 01:17:14 PM 35.3436 -109.5528 76° East 504 580 39,100  Level Albuquerque Center
Thu 01:18:16 PM 35.3761 -109.3908 76° East 510 587 39,100  Level Albuquerque Center
Thu 01:19:18 PM 35.4125 -109.2053 76° East 506 582 39,100  Level Albuquerque Center
Thu 01:20:20 PM 35.4439 -109.0453 76° East 507 583 39,100  Level Albuquerque Center
Thu 01:21:22 PM 35.4806 -108.8600 76° East 505 581 39,100  Level Albuquerque Center
Thu 01:22:24 PM 35.5222 -108.7081 71° East 498 573 39,100  Level Albuquerque Center
Thu 01:23:26 PM 35.5708 -108.5292 71° East 497 572 39,100  Level Albuquerque Center
Thu 01:24:28 PM 35.6117 -108.3758 72° East 497 572 39,100  Level Albuquerque Center
Thu 01:25:30 PM 35.6586 -108.1992 72° East 492 566 39,100  Level Albuquerque Center
Thu 01:26:32 PM 35.6992 -108.0475 72° East 491 565 39,100  Level Albuquerque Center
Thu 01:27:34 PM 35.7456 -107.8717 72° East 487 560 39,100  Level Albuquerque Center
Thu 01:28:36 PM 35.7842 -107.7211 72° East 484 557 39,100  Level Albuquerque Center
Thu 01:29:38 PM 35.8294 -107.5453 72° East 483 556 39,100  Level Albuquerque Center
Thu 01:30:40 PM 35.8692 -107.3933 72° East 486 559 39,100  Level Albuquerque Center
Thu 01:31:42 PM 35.9142 -107.2169 72° East 484 557 39,100 -48 Level Albuquerque Center
Thu 01:32:44 PM 35.9522 -107.0736 72° East 489 563 39,000 -48 Descending Albuquerque Center
Thu 01:33:46 PM 35.9953 -106.9136 72° East 489 563 39,000 48 Level Albuquerque Center
Thu 01:34:48 PM 36.0617 -106.7311 66° East 486 559 39,100  Climbing Albuquerque Center
Thu 01:35:51 PM 36.1189 -106.5797 65° Northeast 485 558 39,000 -48 Descending Albuquerque Center
Thu 01:36:53 PM 36.1747 -106.4267 66° East 486 559 39,000 48 Level Albuquerque Center
Thu 01:37:55 PM 36.2353 -106.2567 66° East 486 559 39,100 48 Climbing Albuquerque Center
Thu 01:38:57 PM 36.2853 -106.1206 65° Northeast 486 559 39,100 -48 Level Albuquerque Center
Thu 01:39:59 PM 36.3394 -105.9672 66° East 486 559 39,000  Descending Albuquerque Center
Thu 01:41:01 PM 36.3906 -105.8086 68° East 493 567 39,100  Climbing Albuquerque Center
Thu 01:42:03 PM 36.4564 -105.6228 66° East 492 566 39,000  Descending Albuquerque Center
Thu 01:43:05 PM 36.5086 -105.4739 66° East 486 559 39,100 48 Climbing Albuquerque Center
Thu 01:44:07 PM 36.5686 -105.3008 67° East 489 563 39,100  Level Albuquerque Center
Thu 01:45:09 PM 36.6231 -105.1406 67° East 488 562 39,100  Level Albuquerque Center
Thu 01:46:11 PM 36.6775 -104.9817 67° East 492 566 39,100  Level Albuquerque Center
Thu 01:47:13 PM 36.7306 -104.8281 67° East 490 564 39,100  Level Albuquerque Center
Thu 01:48:15 PM 36.7897 -104.6531 67° East 492 566 39,100  Level Albuquerque Center
Thu 01:49:17 PM 36.8411 -104.5036 67° East 491 565 39,100  Level Albuquerque Center
Thu 01:50:19 PM 36.9017 -104.3294 66° East 491 565 39,100  Level Albuquerque Center
Thu 01:51:21 PM 36.9525 -104.1794 67° East 492 566 39,100  Level Albuquerque Center
Thu 01:52:23 PM 37.0122 -104.0036 67° East 494 568 39,100  Level Albuquerque Center
Thu 01:53:25 PM 37.0628 -103.8531 67° East 494 568 39,100  Level Albuquerque Center
Thu 01:54:27 PM 37.1214 -103.6786 67° East 491 565 39,100  Level Albuquerque Center
Thu 01:55:29 PM 37.1736 -103.5286 66° East 493 567 39,100  Level Albuquerque Center
Thu 01:56:31 PM 37.2322 -103.3531 67° East 493 567 39,100  Level Albuquerque Center
Thu 01:57:33 PM 37.2819 -103.2036 67° East 488 562 39,100  Level Albuquerque Center
Thu 01:59:00 PM 37.3567 -102.9756 68° East 492 566 39,100  Level Albuquerque Center
Thu 02:00:02 PM 37.4136 -102.7961 68° East 495 570 39,100  Level Albuquerque Center
Thu 02:01:04 PM 37.4644 -102.6419 67° East 497 572 39,100  Level Albuquerque Center
Thu 02:02:07 PM 37.5144 -102.4772 69° East 500 575 39,100  Level Denver Center
Thu 02:03:09 PM 37.5711 -102.2944 69° East 502 578 39,100  Level Denver Center
Thu 02:04:11 PM 37.6194 -102.1364 69° East 504 580 39,100  Level Denver Center
Thu 02:05:13 PM 37.6772 -101.9497 69° East 511 588 39,100  Level Denver Center
Thu 02:06:15 PM 37.7272 -101.7911 68° East 509 586 39,100  Level Denver Center
Thu 02:07:37 PM 37.8003 -101.5506 69° East 509 586 39,100  Level Kansas City Center
Thu 02:08:39 PM 37.8503 -101.3881 69° East 513 590 39,100  Level Kansas City Center
Thu 02:09:21 PM 37.8839 -101.2808 68° East 512 589 39,100  Level Denver Center
Thu 02:10:23 PM 37.9411 -101.0908 69° East 513 590 39,100  Level Denver Center
Thu 02:11:25 PM 37.9911 -100.9269 69° East 515 593 39,100  Level Denver Center
Thu 02:11:45 PM 38.0072 -100.8708 70° East 515 593 39,100  Level Kansas City Center
Thu 02:12:47 PM 38.0650 -100.6806 69° East 514 592 39,100  Level Kansas City Center
Thu 02:13:49 PM 38.1144 -100.5172 69° East 514 592 39,100  Level Kansas City Center
Thu 02:14:51 PM 38.1711 -100.3272 69° East 514 592 39,100  Level Kansas City Center
Thu 02:15:53 PM 38.2192 -100.1661 69° East 510 587 39,100  Level Kansas City Center
Thu 02:16:55 PM 38.2656 -100.0022 70° East 512 589 39,100  Level Kansas City Center
Thu 02:17:57 PM 38.3200 -99.8147 70° East 507 583 39,100  Level Kansas City Center
Thu 02:18:59 PM 38.3669 -99.6575 69° East 500 575 39,100 -48 Level Kansas City Center
Thu 02:20:01 PM 38.4131 -99.4939 70° East 496 571 39,000 -48 Descending Kansas City Center
Thu 02:21:03 PM 38.4592 -99.3292 70° East 494 568 39,000  Level Kansas City Center
Thu 02:22:05 PM 38.5158 -99.1314 70° East 494 568 39,000  Level Kansas City Center
Thu 02:23:06 PM 38.5633 -98.9622 70° East 500 575 39,000  Level Kansas City Center
Thu 02:24:08 PM 38.6119 -98.7922 70° East 510 587 39,000  Level Kansas City Center
Thu 02:25:10 PM 38.6583 -98.6217 71° East 507 583 39,000  Level Kansas City Center
Thu 02:26:12 PM 38.7056 -98.4514 70° East 506 582 39,000  Level Kansas City Center
Thu 02:27:14 PM 38.7511 -98.2808 71° East 505 581 39,000  Level Kansas City Center
Thu 02:28:16 PM 38.7969 -98.1100 71° East 505 581 39,000  Level Kansas City Center
Thu 02:29:18 PM 38.8428 -97.9419 71° East 499 574 39,000  Level Kansas City Center
Thu 02:30:20 PM 38.8928 -97.7500 71° East 500 575 39,000  Level Kansas City Center
Thu 02:31:22 PM 38.9442 -97.5611 71° East 502 578 39,000  Level Kansas City Center
Thu 02:32:24 PM 38.9875 -97.4006 71° East 499 574 39,000  Level Kansas City Center
Thu 02:33:26 PM 39.0364 -97.2131 71° East 494 568 39,000 48 Level Kansas City Center
Thu 02:34:28 PM 39.0772 -97.0544 72° East 491 565 39,100  Climbing Kansas City Center
Thu 02:35:29 PM 39.1189 -96.8958 71° East 489 563 39,000 -49 Descending Kansas City Center
Thu 02:36:31 PM 39.1667 -96.7122 71° East 485 558 39,000  Level Kansas City Center
Thu 02:37:33 PM 39.2061 -96.5528 72° East 486 559 39,000 48 Level Kansas City Center
Thu 02:38:35 PM 39.2536 -96.3664 72° East 491 565 39,100  Climbing Kansas City Center
Thu 02:39:37 PM 39.2967 -96.2003 71° East 496 571 39,000 -48 Descending Kansas City Center
Thu 02:40:39 PM 39.3422 -96.0128 73° East 500 575 39,000  Level Kansas City Center
Thu 02:41:41 PM 39.3842 -95.8467 72° East 504 580 39,000  Level Kansas City Center
Thu 02:42:43 PM 39.4253 -95.6806 72° East 506 582 39,000  Level Kansas City Center
Thu 02:43:44 PM 39.4731 -95.4867 72° East 502 578 39,000 49 Level Kansas City Center
Thu 02:44:46 PM 39.5192 -95.2956 73° East 504 580 39,100  Climbing Kansas City Center
Thu 02:45:48 PM 39.5600 -95.1244 73° East 500 575 39,000 -48 Descending Kansas City Center
Thu 02:46:50 PM 39.6003 -94.9578 73° East 502 578 39,000  Level Kansas City Center
Thu 02:47:52 PM 39.6397 -94.7925 73° East 502 578 39,000  Level Kansas City Center
Thu 02:48:53 PM 39.6853 -94.5992 73° East 500 575 39,000  Level Kansas City Center
Thu 02:49:55 PM 39.7233 -94.4336 73° East 498 573 39,000  Level Kansas City Center
Thu 02:50:57 PM 39.7675 -94.2425 73° East 494 568 39,000 48 Level Kansas City Center
Thu 02:51:59 PM 39.8097 -94.0606 73° East 498 573 39,100  Climbing Kansas City Center
Thu 02:53:01 PM 39.8453 -93.8989 74° East 498 573 39,000 -49 Descending Kansas City Center
Thu 02:54:02 PM 39.8836 -93.7286 74° East 495 570 39,000  Level Kansas City Center
Thu 02:55:04 PM 39.9236 -93.5608 73° East 492 566 39,000 -194 Level Kansas City Center
Thu 02:56:06 PM 39.9594 -93.3939 74° East 485 558 38,600 -823 Descending Kansas City Center
Thu 02:57:08 PM 40.0036 -93.2000 73° East 471 542 37,300 -1,306 Descending Kansas City Center
Thu 02:58:10 PM 40.0383 -93.0386 74° East 467 537 35,900 -1,355 Descending Kansas City Center
Thu 02:59:12 PM 40.0725 -92.8783 74° East 464 534 34,500 -1,415 Descending Kansas City Center
Thu 03:00:13 PM 40.1114 -92.6961 74° East 466 536 33,000 -732 Descending Kansas City Center
Thu 03:01:15 PM 40.1517 -92.5403 71° East 470 541 33,000  Level Kansas City Center
Thu 03:02:17 PM 40.2192 -92.3642 63° Northeast 481 554 33,000  Level Kansas City Center
Thu 03:03:19 PM 40.2706 -92.2206 65° Northeast 481 554 33,000  Level Kansas City Center
Thu 03:04:21 PM 40.3256 -92.0658 65° Northeast 476 548 33,000  Level Kansas City Center
Thu 03:05:22 PM 40.3794 -91.9106 65° Northeast 473 544 33,000  Level Kansas City Center
Thu 03:06:24 PM 40.4461 -91.7239 65° Northeast 474 545 33,000  Level Kansas City Center
Thu 03:07:22 PM 40.4881 -91.5994 66° East 471 542 33,000  Level Chicago Center
Thu 03:08:24 PM 40.5531 -91.4125 65° Northeast 473 544 33,000  Level Chicago Center
Thu 03:09:26 PM 40.6053 -91.2569 66° East 473 544 33,000  Level Chicago Center
Thu 03:10:28 PM 40.6594 -91.1000 65° Northeast 471 542 33,000  Level Chicago Center
Thu 03:11:30 PM 40.7133 -90.9419 66° East 473 544 33,000  Level Chicago Center
Thu 03:12:32 PM 40.7675 -90.7831 66° East 474 545 33,000  Level Chicago Center
Thu 03:13:34 PM 40.8317 -90.5917 66° East 474 545 33,000 -290 Level Chicago Center
Thu 03:14:36 PM 40.8853 -90.4308 66° East 477 549 32,400 -1,016 Descending Chicago Center
Thu 03:15:38 PM 40.9406 -90.2622 66° East 494 568 30,900 -1,597 Descending Chicago Center
Thu 03:16:40 PM 40.9933 -90.0967 67° East 491 565 29,100 -1,694 Descending Chicago Center
Thu 03:17:42 PM 41.0508 -89.9297 65° Northeast 489 563 27,400 -1,548 Descending Chicago Center
Thu 03:18:44 PM 41.1017 -89.7747 66° East 459 528 25,900 -1,152 Descending Chicago Center
Thu 03:19:47 PM 41.1472 -89.6344 67° East 418 481 25,000 -432 Descending Chicago Center
Thu 03:20:49 PM 41.1750 -89.5169 73° East 345 397 25,000  Level Chicago Center
Thu 03:21:51 PM 41.1236 -89.4028 121° Southeast 315 362 25,000  Level Chicago Center
Thu 03:22:53 PM 41.0431 -89.3936 175° South 300 345 25,000  Level Chicago Center
Thu 03:23:55 PM 40.9833 -89.4683 223° Southwest 308 354 25,000  Level Chicago Center
Thu 03:24:57 PM 40.9489 -89.5853 249° West 310 357 25,000  Level Chicago Center
Thu 03:25:59 PM 40.9175 -89.6906 248° West 312 359 25,000 -97 Level Chicago Center
Thu 03:27:01 PM 40.9408 -89.8061 285° West 346 398 24,800 -484 Descending Chicago Center
Thu 03:28:03 PM 41.0394 -89.8117 358° North 359 413 24,000 -387 Descending Chicago Center
Thu 03:29:05 PM 41.0956 -89.7125 53° Northeast 337 388 24,000  Level Chicago Center
Thu 03:30:08 PM 41.1542 -89.5992 55° Northeast 367 422 24,000 -480 Level Chicago Center
Thu 03:31:10 PM 41.2067 -89.4778 60° Northeast 378 435 23,000 -1,355 Descending Chicago Center
Thu 03:32:12 PM 41.2542 -89.3575 62° Northeast 371 427 21,200 -1,790 Descending Chicago Center
Thu 03:33:14 PM 41.3017 -89.2400 62° Northeast 362 417 19,300 -2,274 Descending Chicago Center
Thu 03:34:16 PM 41.3533 -89.1061 63° Northeast 390 449 16,500 -1,984 Descending Chicago Center
Thu 03:35:18 PM 41.3944 -88.9625 69° East 416 479 15,200 -1,839 Descending Chicago Center
Thu 03:36:20 PM 41.4631 -88.8092 59° Northeast 404 465 12,700 -2,032 Descending Chicago Center
Thu 03:37:22 PM 41.5197 -88.6892 58° Northeast 386 444 11,000 -823 Descending Chicago Center
Thu 03:38:24 PM 41.5667 -88.5750 61° Northeast 354 407 11,000 -435 Level Chicago Center
Thu 03:39:26 PM 41.6000 -88.4744 66° East 302 348 10,100 -968 Descending Chicago Center
Thu 03:40:28 PM 41.6219 -88.3711 74° East 290 334 9,000 -864 Descending Chicago Center
Thu 03:41:31 PM 41.6414 -88.2814 74° East 254 292 8,300 -480 Descending Chicago Center
Thu 03:42:33 PM 41.6925 -88.2017 49° Northeast 244 281 8,000 -484 Descending Chicago Center
Thu 03:43:35 PM 41.7447 -88.1461 38° Northeast 239 275 7,300 -1,306 Descending Chicago Center
Thu 03:44:37 PM 41.7908 -88.0906 42° Northeast 228 262 5,300 -1,694 Descending Chicago Center
Thu 03:45:39 PM 41.8339 -88.0403 41° Northeast 216 249 3,800 -1,452 Descending Chicago Center

Login

Don't have an account? Register now (free) for customized features, flight alerts, and more!